createdAt,value
2022-10-24T00:01:22.270Z,100418.69
2022-10-24T00:04:25.092Z,100428.81
2022-10-24T00:07:27.652Z,100427.09
2022-10-24T00:10:30.436Z,100421.78
2022-10-24T00:13:33.839Z,100433.03
2022-10-24T00:16:36.633Z,100435.69
2022-10-24T00:19:39.231Z,100431.59
2022-10-24T00:22:42.161Z,100433.06
2022-10-24T00:25:44.820Z,100422.75
2022-10-24T00:28:47.713Z,100416.31
2022-10-24T00:31:50.383Z,100420.47
2022-10-24T00:34:53.250Z,100417.59
2022-10-24T00:37:55.744Z,100421.75
2022-10-24T00:40:58.535Z,100411.13
2022-10-24T00:44:14.899Z,100417.97
2022-10-24T00:47:26.740Z,100418.47
2022-10-24T00:50:29.293Z,100407.63
2022-10-24T00:53:35.532Z,100410.63
2022-10-24T00:56:44.944Z,100405.44
2022-10-24T00:59:53.069Z,100410.56
2022-10-24T01:02:58.575Z,100407.94
2022-10-24T01:06:22.720Z,100406.94
2022-10-24T01:09:46.017Z,100403.75
2022-10-24T01:12:54.930Z,100402.53
2022-10-24T01:16:54.599Z,100401.94
2022-10-24T01:20:18.942Z,100397.22
2022-10-24T01:23:47.978Z,100396.72
2022-10-24T01:27:09.621Z,100392.09
2022-10-24T01:30:14.124Z,100385.72
2022-10-24T01:33:33.933Z,100388.00
2022-10-24T01:36:44.205Z,100394.84
2022-10-24T01:39:53.436Z,100404.81
2022-10-24T01:43:00.504Z,100396.09
2022-10-24T01:46:08.345Z,100397.66
2022-10-24T01:49:15.818Z,100403.59
2022-10-24T01:52:20.188Z,100398.19
2022-10-24T01:55:23.197Z,100393.34
2022-10-24T01:58:26.200Z,100383.44
2022-10-24T02:01:29.767Z,100379.00
2022-10-24T02:04:36.634Z,100384.50
2022-10-24T02:07:42.625Z,100383.09
2022-10-24T02:10:51.179Z,100387.81
2022-10-24T02:14:02.372Z,100385.97
2022-10-24T02:17:05.747Z,100380.72
2022-10-24T02:20:09.366Z,100368.38
2022-10-24T02:23:21.428Z,100364.50
2022-10-24T02:26:44.032Z,100367.47
2022-10-24T02:30:02.906Z,100356.84
2022-10-24T02:33:06.091Z,100362.06
2022-10-24T02:36:13.072Z,100360.13
2022-10-24T02:39:17.354Z,100359.41
2022-10-24T02:42:21.528Z,100362.78
2022-10-24T02:45:25.999Z,100366.41
2022-10-24T02:48:33.417Z,100362.72
2022-10-24T02:51:40.364Z,100366.88
2022-10-24T02:54:42.929Z,100370.84
2022-10-24T02:57:45.756Z,100367.53
2022-10-24T03:00:48.484Z,100363.81
2022-10-24T03:03:51.367Z,100373.31
2022-10-24T03:06:54.011Z,100363.72
2022-10-24T03:09:56.845Z,100350.41
2022-10-24T03:13:00.711Z,100349.19
2022-10-24T03:16:06.757Z,100358.53
2022-10-24T03:19:12.058Z,100350.34
2022-10-24T03:22:14.840Z,100347.94
2022-10-24T03:25:18.012Z,100345.91
2022-10-24T03:28:20.960Z,100334.28
2022-10-24T03:31:23.552Z,100345.13
2022-10-24T03:34:26.405Z,100329.84
2022-10-24T03:37:29.876Z,100329.75
2022-10-24T03:40:32.785Z,100329.75
2022-10-24T03:43:35.401Z,100341.28
2022-10-24T03:46:38.136Z,100344.50
2022-10-24T03:49:40.784Z,100349.50
2022-10-24T03:52:43.983Z,100340.56
2022-10-24T03:55:46.762Z,100349.00
2022-10-24T03:58:49.509Z,100337.09
2022-10-24T04:01:52.156Z,100342.19
2022-10-24T04:04:54.926Z,100342.19
2022-10-24T04:07:57.652Z,100350.22
2022-10-24T04:11:01.664Z,100347.00
2022-10-24T04:14:05.357Z,100351.81
2022-10-24T04:17:08.343Z,100358.28
2022-10-24T04:20:11.743Z,100366.81
2022-10-24T04:23:14.744Z,100355.53
2022-10-24T04:26:17.776Z,100359.88
2022-10-24T04:29:20.775Z,100365.16
2022-10-24T04:32:23.271Z,100367.69
2022-10-24T04:35:26.498Z,100361.66
2022-10-24T04:38:33.291Z,100352.78
2022-10-24T04:41:36.704Z,100360.09
2022-10-24T04:44:39.232Z,100357.72
2022-10-24T04:47:42.167Z,100343.16
2022-10-24T04:50:46.508Z,100344.84
2022-10-24T04:53:50.548Z,100350.38
2022-10-24T04:56:53.473Z,100348.06
2022-10-24T04:59:56.411Z,100338.00
2022-10-24T05:02:59.296Z,100343.50
2022-10-24T05:06:02.219Z,100333.53
2022-10-24T05:09:05.192Z,100332.19
2022-10-24T05:12:08.031Z,100323.41
2022-10-24T05:15:11.264Z,100324.53
2022-10-24T05:18:14.140Z,100323.31
2022-10-24T05:21:19.489Z,100333.44
2022-10-24T05:24:22.600Z,100332.22
2022-10-24T05:27:25.167Z,100342.19
2022-10-24T05:30:28.086Z,100351.94
2022-10-24T05:33:30.677Z,100370.22
2022-10-24T05:36:33.521Z,100385.84
2022-10-24T05:39:36.302Z,100375.87
2022-10-24T05:42:39.078Z,100377.78
2022-10-24T05:45:41.991Z,100375.25
2022-10-24T05:48:44.835Z,100379.25
2022-10-24T05:51:47.353Z,100377.78
2022-10-24T05:55:02.557Z,100382.13
2022-10-24T05:58:08.908Z,100392.34
2022-10-24T06:01:11.895Z,100405.09
2022-10-24T06:04:14.812Z,100415.06
2022-10-24T06:07:18.726Z,100417.34
2022-10-24T06:10:22.119Z,100415.03
2022-10-24T06:13:24.657Z,100419.03
2022-10-24T06:16:30.217Z,100415.91
2022-10-24T06:19:33.213Z,100399.28
2022-10-24T06:22:36.065Z,100404.50
2022-10-24T06:25:41.725Z,100420.47
2022-10-24T06:28:44.506Z,100417.81
2022-10-24T06:31:47.040Z,100415.00
2022-10-24T06:34:50.728Z,100416.69
2022-10-24T06:37:54.818Z,100410.34
2022-10-24T06:40:58.367Z,100406.13
2022-10-24T06:44:02.754Z,100407.31
2022-10-24T06:47:06.673Z,100398.50
2022-10-24T06:50:09.771Z,100396.34
2022-10-24T06:53:12.543Z,100392.97
2022-10-24T06:56:17.681Z,100393.44
2022-10-24T06:59:20.606Z,100398.88
2022-10-24T07:02:23.263Z,100396.34
2022-10-24T07:05:26.330Z,100395.16
2022-10-24T07:08:29.027Z,100386.47
2022-10-24T07:11:33.763Z,100381.91
2022-10-24T07:14:36.503Z,100381.06
2022-10-24T07:17:41.045Z,100389.50
2022-10-24T07:20:43.681Z,100385.50
2022-10-24T07:23:46.481Z,100389.94
2022-10-24T07:26:48.960Z,100394.84
2022-10-24T07:29:52.196Z,100393.94
2022-10-24T07:32:55.945Z,100419.97
2022-10-24T07:35:59.196Z,100423.09
2022-10-24T07:39:01.913Z,100425.22
2022-10-24T07:42:04.849Z,100432.69
2022-10-24T07:45:07.948Z,100430.44
2022-10-24T07:48:11.722Z,100438.09
2022-10-24T07:51:14.933Z,100440.41
2022-10-24T07:54:17.795Z,100429.19
2022-10-24T07:57:20.774Z,100423.34
2022-10-24T08:00:24.982Z,100426.44
2022-10-24T08:03:27.934Z,100430.28
2022-10-24T08:06:32.062Z,100422.56
2022-10-24T08:09:38.275Z,100428.38
2022-10-24T08:12:41.073Z,100425.38
2022-10-24T08:15:43.872Z,100436.06
2022-10-24T08:18:47.145Z,100431.88
2022-10-24T08:21:53.262Z,100436.41
2022-10-24T08:24:55.743Z,100437.41
2022-10-24T08:27:58.667Z,100431.72
2022-10-24T08:31:03.903Z,100436.03
2022-10-24T08:34:07.218Z,100424.72
2022-10-24T08:37:09.766Z,100417.38
2022-10-24T08:40:16.449Z,100426.03
2022-10-24T08:43:20.224Z,100425.09
2022-10-24T08:46:48.945Z,100416.16
2022-10-24T08:50:18.080Z,100414.44
2022-10-24T08:53:31.380Z,100414.53
2022-10-24T08:56:34.276Z,100397.28
2022-10-24T08:59:38.546Z,100399.16
2022-10-24T09:02:44.295Z,100391.16
2022-10-24T09:05:52.818Z,100390.22
2022-10-24T09:09:04.880Z,100380.41
2022-10-24T09:12:20.215Z,100382.53
2022-10-24T09:15:29.445Z,100384.03
2022-10-24T09:18:40.154Z,100375.38
2022-10-24T09:21:44.494Z,100382.66
2022-10-24T09:25:02.056Z,100380.88
2022-10-24T09:28:06.679Z,100385.28
2022-10-24T09:31:22.201Z,100381.66
2022-10-24T09:34:24.751Z,100374.31
2022-10-24T09:37:37.680Z,100372.09
2022-10-24T09:40:51.405Z,100385.59
2022-10-24T09:43:59.938Z,100384.84
2022-10-24T09:47:06.109Z,100389.47
2022-10-24T09:50:21.479Z,100392.28
2022-10-24T09:53:28.277Z,100404.38
2022-10-24T09:56:39.870Z,100411.75
2022-10-24T09:59:46.319Z,100413.94
2022-10-24T10:02:58.122Z,100417.63
2022-10-24T10:06:15.483Z,100407.16
2022-10-24T10:09:28.202Z,100404.38
2022-10-24T10:12:38.662Z,100398.81
2022-10-24T10:15:43.994Z,100399.66
2022-10-24T10:18:48.544Z,100401.78
2022-10-24T10:21:59.901Z,100395.44
2022-10-24T10:25:04.877Z,100397.97
2022-10-24T10:28:20.622Z,100403.84
2022-10-24T10:31:28.748Z,100399.66
2022-10-24T10:34:45.997Z,100398.75
2022-10-24T10:38:13.836Z,100393.75
2022-10-24T10:41:31.395Z,100386.31
2022-10-24T10:44:40.030Z,100393.31
2022-10-24T10:48:04.424Z,100395.84
2022-10-24T10:51:19.908Z,100394.28
2022-10-24T10:54:59.491Z,100385.16
2022-10-24T10:58:28.221Z,100381.47
2022-10-24T11:02:09.266Z,100368.53
2022-10-24T11:05:40.364Z,100368.78
2022-10-24T11:09:20.811Z,100364.91
2022-10-24T11:12:34.322Z,100361.25
2022-10-24T11:15:42.464Z,100363.53
2022-10-24T11:18:50.967Z,100363.19
2022-10-24T11:21:57.221Z,100364.44
2022-10-24T11:25:07.225Z,100350.44
2022-10-24T11:28:52.413Z,100356.72
2022-10-24T11:32:07.170Z,100351.19
2022-10-24T11:35:29.878Z,100358.16
2022-10-24T11:38:36.592Z,100357.44
2022-10-24T11:41:50.920Z,100354.50
2022-10-24T11:45:03.324Z,100345.03
2022-10-24T11:48:21.374Z,100347.97
2022-10-24T11:51:38.972Z,100355.78
2022-10-24T11:54:51.317Z,100354.25
2022-10-24T11:57:57.929Z,100356.25
2022-10-24T12:01:25.552Z,100346.56
2022-10-24T12:04:56.469Z,100347.53
2022-10-24T12:08:32.805Z,100337.22
2022-10-24T12:12:06.775Z,100335.53
2022-10-24T12:15:28.937Z,100329.66
2022-10-24T12:18:37.182Z,100347.31
2022-10-24T12:21:45.161Z,100332.75
2022-10-24T12:24:48.969Z,100334.41
2022-10-24T12:28:18.440Z,100338.44
2022-10-24T12:31:26.543Z,100341.66
2022-10-24T12:34:30.907Z,100337.19
2022-10-24T12:37:35.189Z,100329.94
2022-10-24T12:40:55.753Z,100322.22
2022-10-24T12:44:33.447Z,100310.91
2022-10-24T12:48:31.236Z,100303.91
2022-10-24T12:51:41.172Z,100307.12
2022-10-24T12:54:45.641Z,100311.59
2022-10-24T12:57:48.639Z,100296.94
2022-10-24T13:01:02.341Z,100300.69
2022-10-24T13:04:31.198Z,100305.44
2022-10-24T13:08:13.014Z,100299.84
2022-10-24T13:11:25.158Z,100292.44
2022-10-24T13:14:35.124Z,100281.56
2022-10-24T13:17:50.784Z,100267.50
2022-10-24T13:21:21.579Z,100290.75
2022-10-24T13:24:34.713Z,100298.72
2022-10-24T13:27:37.252Z,100285.03
2022-10-24T13:30:40.115Z,100275.31
2022-10-24T13:33:45.330Z,100260.66
2022-10-24T13:36:53.681Z,100263.87
2022-10-24T13:40:15.822Z,100274.81
2022-10-24T13:43:19.819Z,100284.59
2022-10-24T13:46:37.011Z,100285.59
2022-10-24T13:49:58.823Z,100264.88
2022-10-24T13:53:50.232Z,100279.56
2022-10-24T13:56:55.946Z,100273.69
2022-10-24T14:00:05.514Z,100273.16
2022-10-24T14:03:17.399Z,100272.84
2022-10-24T14:06:26.674Z,100279.28
2022-10-24T14:09:29.663Z,100279.44
2022-10-24T14:12:33.340Z,100273.16
2022-10-24T14:15:35.960Z,100275.13
2022-10-24T14:18:41.314Z,100284.47
2022-10-24T14:21:46.131Z,100275.50
2022-10-24T14:24:49.206Z,100269.19
2022-10-24T14:27:53.965Z,100262.66
2022-10-24T14:31:02.155Z,100269.78
2022-10-24T14:34:06.486Z,100248.78
2022-10-24T14:37:16.101Z,100260.09
2022-10-24T14:40:19.355Z,100266.12
2022-10-24T14:43:27.375Z,100265.88
2022-10-24T14:46:41.456Z,100264.03
2022-10-24T14:49:44.232Z,100259.12
2022-10-24T14:52:47.232Z,100261.50
2022-10-24T14:55:56.030Z,100254.47
2022-10-24T14:59:00.996Z,100256.59
2022-10-24T15:02:30.570Z,100249.34
2022-10-24T15:05:34.848Z,100263.66
2022-10-24T15:08:40.047Z,100261.66
2022-10-24T15:11:45.772Z,100259.00
2022-10-24T15:14:50.156Z,100264.31
2022-10-24T15:18:08.095Z,100263.63
2022-10-24T15:21:18.091Z,100255.75
2022-10-24T15:24:24.966Z,100260.53
2022-10-24T15:27:40.192Z,100255.78
2022-10-24T15:30:42.665Z,100256.59
2022-10-24T15:33:46.116Z,100248.62
2022-10-24T15:36:53.156Z,100245.69
2022-10-24T15:39:56.521Z,100246.56
2022-10-24T15:43:00.534Z,100243.31
2022-10-24T15:46:03.420Z,100245.72
2022-10-24T15:49:06.604Z,100244.75
2022-10-24T15:52:15.599Z,100248.38
2022-10-24T15:55:44.543Z,100251.31
2022-10-24T15:58:55.944Z,100246.00
2022-10-24T16:02:03.048Z,100253.84
2022-10-24T16:05:06.548Z,100258.91
2022-10-24T16:08:14.498Z,100255.56
2022-10-24T16:11:17.425Z,100248.13
2022-10-24T16:14:22.193Z,100244.94
2022-10-24T16:17:25.161Z,100243.66
2022-10-24T16:20:27.946Z,100247.84
2022-10-24T16:23:31.522Z,100253.87
2022-10-24T16:26:35.050Z,100268.56
2022-10-24T16:29:38.090Z,100272.03
2022-10-24T16:32:40.931Z,100253.16
2022-10-24T16:35:43.878Z,100251.06
2022-10-24T16:38:49.497Z,100251.63
2022-10-24T16:41:59.638Z,100264.75
2022-10-24T16:45:02.552Z,100263.91
2022-10-24T16:48:05.594Z,100273.44
2022-10-24T16:51:14.664Z,100267.00
2022-10-24T16:54:19.144Z,100257.78
2022-10-24T17:00:26.324Z,100255.25
2022-10-24T17:03:29.582Z,100254.97
2022-10-24T17:06:32.439Z,100244.63
2022-10-24T17:09:35.537Z,100261.53
2022-10-24T17:12:41.229Z,100261.78
2022-10-24T17:15:44.248Z,100247.16
2022-10-24T17:19:04.754Z,100251.47
2022-10-24T17:22:11.244Z,100253.97
2022-10-24T17:25:24.413Z,100248.22
2022-10-24T17:28:32.423Z,100246.38
2022-10-24T17:31:36.616Z,100253.19
2022-10-24T17:34:40.941Z,100256.66
2022-10-24T17:37:59.367Z,100252.50
2022-10-24T17:41:18.309Z,100252.75
2022-10-24T17:44:22.016Z,100253.44
2022-10-24T17:47:25.856Z,100264.16
2022-10-24T17:50:29.103Z,100248.38
2022-10-24T17:53:33.089Z,100250.09
2022-10-24T17:56:36.742Z,100244.72
2022-10-24T17:59:39.296Z,100239.09
2022-10-24T18:02:48.917Z,100247.19
2022-10-24T18:05:52.113Z,100233.22
2022-10-24T18:08:55.950Z,100241.44
2022-10-24T18:12:01.055Z,100249.78
2022-10-24T18:15:10.107Z,100249.12
2022-10-24T18:18:13.383Z,100236.81
2022-10-24T18:24:22.275Z,100244.31
2022-10-24T18:27:25.139Z,100244.06
2022-10-24T18:30:28.489Z,100241.50
2022-10-24T18:33:32.580Z,100231.94
2022-10-24T18:36:37.076Z,100223.56
2022-10-24T18:39:39.892Z,100236.75
2022-10-24T18:42:50.164Z,100223.16
2022-10-24T18:45:53.231Z,100228.75
2022-10-24T18:48:56.987Z,100229.50
2022-10-24T18:52:06.579Z,100222.53
2022-10-24T18:55:17.907Z,100233.53
2022-10-24T18:58:20.997Z,100230.34
2022-10-24T19:01:45.815Z,100223.87
2022-10-24T19:05:15.493Z,100214.88
2022-10-24T19:08:24.906Z,100199.53
2022-10-24T19:11:28.020Z,100182.38
2022-10-24T19:14:31.920Z,100178.59
2022-10-24T19:17:34.905Z,100196.81
2022-10-24T19:20:38.856Z,100203.37
2022-10-24T19:23:41.645Z,100199.09
2022-10-24T19:26:44.740Z,100198.84
2022-10-24T19:29:47.705Z,100197.28
2022-10-24T19:32:50.840Z,100197.91
2022-10-24T19:35:54.026Z,100197.25
2022-10-24T19:38:57.540Z,100196.34
2022-10-24T19:42:00.315Z,100201.53
2022-10-24T19:45:05.219Z,100201.88
2022-10-24T19:48:08.977Z,100197.97
2022-10-24T19:51:13.424Z,100194.72
2022-10-24T19:54:16.161Z,100200.31
2022-10-24T19:57:19.330Z,100196.31
2022-10-24T20:00:22.146Z,100199.50
2022-10-24T20:03:25.251Z,100206.03
2022-10-24T20:06:29.093Z,100203.94
2022-10-24T20:09:32.095Z,100202.00
2022-10-24T20:12:34.844Z,100187.31
2022-10-24T20:15:37.794Z,100170.28
2022-10-24T20:18:43.547Z,100150.19
2022-10-24T20:21:47.065Z,100145.41
2022-10-24T20:24:50.203Z,100150.50
2022-10-24T20:27:53.211Z,100162.16
2022-10-24T20:30:56.255Z,100168.16
2022-10-24T20:34:07.010Z,100174.84
2022-10-24T20:37:10.913Z,100174.12
2022-10-24T20:40:14.621Z,100170.94
2022-10-24T20:43:17.871Z,100167.06
2022-10-24T20:46:20.942Z,100154.72
2022-10-24T20:49:25.238Z,100158.87
2022-10-24T20:52:28.218Z,100162.63
2022-10-24T20:55:43.449Z,100154.72
2022-10-24T20:58:47.401Z,100154.12
2022-10-24T21:01:50.233Z,100155.06
2022-10-24T21:04:53.198Z,100163.03
2022-10-24T21:07:56.087Z,100162.81
2022-10-24T21:10:59.069Z,100179.28
2022-10-24T21:14:03.422Z,100191.97
2022-10-24T21:17:06.974Z,100190.44
2022-10-24T21:20:10.128Z,100183.50
2022-10-24T21:23:13.170Z,100168.06
2022-10-24T21:26:15.930Z,100179.59
2022-10-24T21:29:32.916Z,100174.56
2022-10-24T21:32:36.240Z,100175.09
2022-10-24T21:35:39.459Z,100177.72
2022-10-24T21:38:45.606Z,100180.38
2022-10-24T21:41:48.441Z,100180.38
2022-10-24T21:44:50.868Z,100180.75
2022-10-24T21:47:53.676Z,100178.22
2022-10-24T21:51:08.242Z,100180.53
2022-10-24T21:54:29.887Z,100182.47
2022-10-24T21:57:32.449Z,100185.25
2022-10-24T22:00:38.114Z,100185.03
2022-10-24T22:03:43.620Z,100193.69
2022-10-24T22:06:46.689Z,100193.03
2022-10-24T22:09:49.809Z,100198.69
2022-10-24T22:12:53.376Z,100201.69
2022-10-24T22:15:56.379Z,100203.50
2022-10-24T22:19:03.963Z,100201.22
2022-10-24T22:22:06.965Z,100200.63
2022-10-24T22:25:09.768Z,100208.81
2022-10-24T22:28:12.738Z,100197.44
2022-10-24T22:31:16.029Z,100210.16
2022-10-24T22:34:22.509Z,100213.91
2022-10-24T22:37:29.927Z,100224.16
2022-10-24T22:40:33.247Z,100213.84
2022-10-24T22:43:36.421Z,100210.94
2022-10-24T22:46:50.979Z,100209.25
2022-10-24T22:50:38.509Z,100202.75
2022-10-24T22:53:43.125Z,100197.91
2022-10-24T22:56:46.142Z,100191.38
2022-10-24T22:59:49.153Z,100193.75
2022-10-24T23:03:01.570Z,100191.03
2022-10-24T23:06:22.804Z,100184.13
2022-10-24T23:09:25.548Z,100178.56
2022-10-24T23:12:28.895Z,100187.72
2022-10-24T23:15:31.689Z,100189.44
2022-10-24T23:18:34.756Z,100185.87
2022-10-24T23:21:45.524Z,100191.75
2022-10-24T23:24:50.069Z,100186.53
2022-10-24T23:28:05.382Z,100163.03
2022-10-24T23:31:08.746Z,100163.03
2022-10-24T23:34:11.845Z,100167.00
2022-10-24T23:37:24.101Z,100176.22
2022-10-24T23:40:26.941Z,100169.22
2022-10-24T23:43:30.155Z,100152.25
2022-10-24T23:46:46.500Z,100148.53
2022-10-24T23:50:02.744Z,100137.56
2022-10-24T23:53:28.756Z,100139.59
2022-10-24T23:56:31.918Z,100124.69
2022-10-24T23:59:34.384Z,100126.16
